This is the latest recevied weather packets stored in our database for station/object PD0HRY-12. If no packets are shown the sender has not sent any weather packets the latest 10 day(s).
| Time | Temp. | Humidity | Pressure | Rain* | Wind** | Luminosity | Snow |
|---|---|---|---|---|---|---|---|
| 1776943804 | 16.11° C | 41% | 1022 hPa | - | - | - | - |
| 1776942003 | 15° C | 44% | 1022 hPa | - | - | - | - |
| 1776940201 | 13.33° C | 50% | 1023 hPa | - | - | - | - |
| 1776938405 | 12.22° C | 54% | 1023 hPa | - | - | - | - |
| 1776936603 | 10.56° C | 63% | 1023 hPa | - | - | - | - |
| 1776934802 | 9.44° C | 66% | 1023 hPa | - | - | - | - |
| 1776933005 | 7.78° C | 71% | 1024 hPa | - | - | - | - |
| 1776931204 | 6.11° C | 79% | 1023 hPa | - | - | - | - |
| 1776929402 | 4.44° C | 84% | 1023 hPa | - | - | - | - |
| 1776927601 | 3.33° C | 90% | 1023 hPa | - | - | - | - |
| 1776925804 | 3.33° C | 91% | 1023 hPa | - | - | - | - |
| 1776924004 | 3.33° C | 92% | 1023 hPa | - | - | - | - |
| 1776922201 | 3.33° C | 94% | 1023 hPa | - | - | - | - |
| 1776920400 | 3.33° C | 94% | 1022 hPa | - | - | - | - |
| 1776918604 | 2.78° C | 95% | 1022 hPa | - | - | - | - |
| 1776916803 | 3.33° C | 95% | 1022 hPa | - | - | - | - |
| 1776915001 | 3.89° C | 92% | 1022 hPa | - | - | - | - |
| 1776913205 | 5° C | 89% | 1022 hPa | - | - | - | - |
| 1776911403 | 5.56° C | 85% | 1022 hPa | - | - | - | - |
| 1776909602 | 6.11° C | 81% | 1022 hPa | - | - | - | - |
* Rain since midnight (hover to see other rain measurements)
** Current wind speed in m/s (hover to see current wind gust speed)